createdAt,value
2022-12-22T00:02:33.296Z,11.96
2022-12-22T00:05:19.689Z,11.88
2022-12-22T00:08:05.120Z,11.62
2022-12-22T00:10:50.476Z,11.95
2022-12-22T00:13:35.912Z,12.29
2022-12-22T00:16:21.304Z,11.74
2022-12-22T00:19:06.616Z,11.75
2022-12-22T00:21:53.419Z,11.75
2022-12-22T00:24:38.845Z,12.19
2022-12-22T00:27:24.286Z,12.23
2022-12-22T00:30:09.769Z,12.11
2022-12-22T00:32:56.494Z,12.20
2022-12-22T00:35:43.806Z,12.43
2022-12-22T00:38:33.383Z,12.40
2022-12-22T00:41:18.706Z,12.14
2022-12-22T00:44:04.112Z,12.25
2022-12-22T00:46:50.164Z,12.19
2022-12-22T00:49:35.561Z,12.47
2022-12-22T00:52:21.929Z,12.49
2022-12-22T00:55:11.187Z,12.14
2022-12-22T00:57:56.507Z,12.43
2022-12-22T01:00:42.403Z,12.09
2022-12-22T01:03:28.817Z,12.19
2022-12-22T01:06:14.719Z,12.53
2022-12-22T01:09:00.172Z,11.95
2022-12-22T01:11:46.727Z,12.35
2022-12-22T01:14:33.247Z,12.51
2022-12-22T01:17:18.635Z,12.75
2022-12-22T01:20:03.929Z,12.35
2022-12-22T01:22:49.289Z,12.67
2022-12-22T01:25:36.506Z,12.48
2022-12-22T01:28:23.578Z,12.27
2022-12-22T01:31:08.960Z,12.53
2022-12-22T01:33:54.119Z,12.03
2022-12-22T01:36:39.562Z,12.42
2022-12-22T01:39:24.988Z,12.20
2022-12-22T01:42:10.176Z,12.33
2022-12-22T01:44:56.890Z,12.15
2022-12-22T01:47:50.560Z,12.13
2022-12-22T01:50:39.020Z,12.01
2022-12-22T01:53:27.883Z,11.86
2022-12-22T01:56:13.323Z,12.07
2022-12-22T01:59:01.444Z,12.60
2022-12-22T02:01:48.900Z,12.23
2022-12-22T02:04:34.382Z,11.83
2022-12-22T02:07:26.271Z,12.37
2022-12-22T02:10:18.505Z,12.50
2022-12-22T02:13:08.578Z,12.69
2022-12-22T02:15:56.531Z,12.47
2022-12-22T02:18:47.335Z,12.60
2022-12-22T02:21:36.363Z,12.76
2022-12-22T02:24:41.443Z,12.88
2022-12-22T02:27:29.025Z,12.54
2022-12-22T02:30:16.585Z,12.72
2022-12-22T02:33:09.275Z,12.67
2022-12-22T02:36:00.321Z,12.44
2022-12-22T02:38:51.293Z,12.94
2022-12-22T02:41:42.637Z,13.07
2022-12-22T02:44:39.501Z,13.00
2022-12-22T02:47:31.860Z,12.99
2022-12-22T02:50:19.381Z,12.46
2022-12-22T02:53:05.840Z,12.43
2022-12-22T02:55:51.090Z,12.61
2022-12-22T02:58:37.472Z,12.53
2022-12-22T03:01:25.254Z,12.85
2022-12-22T03:04:10.287Z,12.37
2022-12-22T03:06:55.719Z,12.68
2022-12-22T03:09:41.016Z,12.43
2022-12-22T03:12:26.315Z,12.43
2022-12-22T03:15:11.395Z,12.83
2022-12-22T03:17:58.194Z,12.74
2022-12-22T03:20:43.604Z,12.02
2022-12-22T03:23:28.990Z,12.50
2022-12-22T03:25:56.711Z,11.99
2022-12-22T03:28:26.515Z,11.32
2022-12-22T03:30:56.265Z,11.07
2022-12-22T03:33:25.358Z,11.60
2022-12-22T03:35:53.059Z,12.17
2022-12-22T03:38:20.894Z,12.78
2022-12-22T03:40:48.603Z,12.37
2022-12-22T03:43:35.153Z,12.45
2022-12-22T03:46:17.527Z,12.61
2022-12-22T03:49:08.522Z,11.93
2022-12-22T03:51:37.850Z,12.55
2022-12-22T03:54:05.826Z,12.75
2022-12-22T03:56:33.765Z,12.53
2022-12-22T03:59:01.620Z,11.71
2022-12-22T04:01:29.510Z,11.80
2022-12-22T04:03:58.689Z,12.22
2022-12-22T04:06:26.360Z,12.09
2022-12-22T04:08:54.079Z,12.47
2022-12-22T04:11:39.118Z,11.95
2022-12-22T04:14:06.805Z,12.44
2022-12-22T04:16:35.022Z,12.47
2022-12-22T04:19:04.379Z,12.40
2022-12-22T04:21:32.025Z,12.80
2022-12-22T04:23:59.733Z,13.08
2022-12-22T04:26:27.431Z,12.89
2022-12-22T04:28:55.274Z,12.28
2022-12-22T04:31:23.682Z,13.06
2022-12-22T04:33:51.582Z,13.16
2022-12-22T04:36:20.784Z,13.07
2022-12-22T04:38:48.511Z,12.65
2022-12-22T04:41:16.205Z,12.88
2022-12-22T04:43:43.903Z,12.59
2022-12-22T04:46:11.768Z,12.74
2022-12-22T04:48:39.560Z,13.16
2022-12-22T04:51:07.588Z,12.97
2022-12-22T04:53:36.666Z,13.24
2022-12-22T04:56:06.754Z,13.29
2022-12-22T04:58:35.051Z,13.18
2022-12-22T05:01:10.639Z,13.08
2022-12-22T05:03:38.615Z,13.02
2022-12-22T05:06:07.083Z,12.94
2022-12-22T05:08:37.335Z,12.81
2022-12-22T05:11:05.179Z,12.98
2022-12-22T05:13:33.430Z,12.83
2022-12-22T05:16:06.162Z,12.93
2022-12-22T05:18:34.211Z,12.88
2022-12-22T05:21:04.076Z,13.05
2022-12-22T05:23:31.736Z,13.35
2022-12-22T05:26:00.839Z,12.91
2022-12-22T05:28:28.561Z,12.77
2022-12-22T05:30:56.416Z,13.09
2022-12-22T05:33:24.151Z,13.05
2022-12-22T05:35:51.794Z,12.56
2022-12-22T05:38:19.503Z,12.58
2022-12-22T05:40:47.181Z,12.70
2022-12-22T05:43:16.828Z,12.90
2022-12-22T05:45:45.824Z,13.04
2022-12-22T05:48:13.655Z,12.90
2022-12-22T05:50:41.502Z,12.80
2022-12-22T05:53:09.537Z,12.80
2022-12-22T05:55:37.243Z,13.03
2022-12-22T05:58:05.028Z,12.68
2022-12-22T06:00:34.082Z,12.51
2022-12-22T06:03:01.878Z,12.46
2022-12-22T06:05:29.627Z,12.67
2022-12-22T06:07:57.288Z,12.42
2022-12-22T06:10:24.996Z,12.28
2022-12-22T06:12:52.862Z,11.92
2022-12-22T06:15:20.710Z,12.62
2022-12-22T06:17:49.781Z,12.55
2022-12-22T06:20:17.455Z,12.59
2022-12-22T06:22:45.158Z,13.04
2022-12-22T06:25:18.090Z,12.83
2022-12-22T06:27:46.609Z,12.32
2022-12-22T06:30:15.042Z,12.53
2022-12-22T06:32:42.904Z,12.65
2022-12-22T06:35:12.204Z,12.11
2022-12-22T06:37:39.903Z,12.00
2022-12-22T06:40:08.748Z,11.75
2022-12-22T06:42:54.020Z,11.52
2022-12-22T06:45:21.653Z,11.33
2022-12-22T06:47:49.367Z,11.25
2022-12-22T06:50:18.530Z,11.32
2022-12-22T06:52:46.227Z,12.13
2022-12-22T06:55:13.886Z,12.29
2022-12-22T06:57:41.651Z,11.83
2022-12-22T07:00:10.628Z,11.76
2022-12-22T07:02:38.497Z,11.81
2022-12-22T07:05:07.007Z,11.39
2022-12-22T07:07:36.053Z,12.04
2022-12-22T07:10:03.932Z,12.66
2022-12-22T07:12:31.637Z,12.46
2022-12-22T07:14:59.348Z,12.50
2022-12-22T07:17:27.048Z,12.76
2022-12-22T07:19:54.778Z,12.53
2022-12-22T07:22:27.681Z,12.09
2022-12-22T07:24:59.318Z,12.28
2022-12-22T07:27:27.103Z,11.58
2022-12-22T07:29:54.843Z,11.62
2022-12-22T07:32:22.518Z,11.43
2022-12-22T07:34:50.170Z,11.20
2022-12-22T07:37:17.803Z,11.19
2022-12-22T07:39:45.544Z,11.35
2022-12-22T07:42:31.870Z,11.81
2022-12-22T07:44:59.536Z,11.17
2022-12-22T07:47:31.666Z,11.16
2022-12-22T07:50:20.314Z,11.10
2022-12-22T07:52:48.038Z,11.07
2022-12-22T07:55:15.786Z,10.78
2022-12-22T07:57:44.992Z,10.46
2022-12-22T08:00:13.970Z,10.71
2022-12-22T08:02:42.148Z,11.11
2022-12-22T08:05:10.850Z,11.46
2022-12-22T08:07:38.635Z,10.75
2022-12-22T08:10:06.973Z,10.97
2022-12-22T08:12:34.745Z,10.70
2022-12-22T08:15:03.910Z,10.91
2022-12-22T08:17:31.607Z,10.65
2022-12-22T08:19:59.252Z,10.53
2022-12-22T08:22:26.913Z,11.28
2022-12-22T08:24:55.335Z,11.09
2022-12-22T08:27:26.490Z,11.61
2022-12-22T08:29:57.522Z,10.73
2022-12-22T08:32:27.780Z,10.25
2022-12-22T08:34:55.528Z,10.32
2022-12-22T08:37:24.576Z,10.39
2022-12-22T08:39:55.051Z,10.36
2022-12-22T08:42:23.503Z,10.27
2022-12-22T08:44:53.321Z,10.59
2022-12-22T08:47:21.658Z,10.54
2022-12-22T08:49:51.060Z,10.05
2022-12-22T08:52:19.461Z,10.10
2022-12-22T08:54:47.479Z,10.31
2022-12-22T08:57:15.179Z,10.93
2022-12-22T08:59:42.918Z,10.38
2022-12-22T09:02:10.637Z,9.99
2022-12-22T09:04:38.458Z,9.81
2022-12-22T09:07:07.586Z,10.80
2022-12-22T09:09:35.894Z,10.56
2022-12-22T09:12:04.122Z,10.40
2022-12-22T09:14:32.688Z,9.37
2022-12-22T09:17:00.697Z,9.67
2022-12-22T09:19:28.541Z,10.08
2022-12-22T09:21:56.290Z,10.25
2022-12-22T09:24:25.321Z,10.29
2022-12-22T09:26:53.044Z,10.22
2022-12-22T09:29:20.770Z,10.21
2022-12-22T09:31:48.487Z,10.25
2022-12-22T09:34:18.326Z,9.66
2022-12-22T09:36:47.173Z,9.24
2022-12-22T09:39:15.884Z,9.79
2022-12-22T09:41:47.846Z,10.56
2022-12-22T09:44:22.673Z,9.94
2022-12-22T09:46:51.022Z,9.66
2022-12-22T09:49:19.987Z,9.57
2022-12-22T09:51:50.163Z,10.31
2022-12-22T09:54:17.867Z,9.54
2022-12-22T09:56:46.986Z,9.57
2022-12-22T09:59:15.889Z,9.33
2022-12-22T10:01:57.626Z,9.53
2022-12-22T10:04:37.353Z,10.02
2022-12-22T10:07:14.473Z,9.06
2022-12-22T10:09:51.351Z,9.53
2022-12-22T10:12:22.568Z,9.02
2022-12-22T10:14:52.133Z,9.44
2022-12-22T10:17:22.637Z,9.07
2022-12-22T10:19:51.508Z,9.70
2022-12-22T10:22:27.067Z,9.39
2022-12-22T10:24:54.895Z,9.73
2022-12-22T10:27:29.132Z,10.33
2022-12-22T10:30:18.433Z,10.42
2022-12-22T10:33:03.505Z,10.28
2022-12-22T10:35:43.810Z,10.75
2022-12-22T10:38:22.337Z,11.04
2022-12-22T10:40:56.570Z,9.80
2022-12-22T10:43:31.233Z,9.91
2022-12-22T10:45:59.423Z,10.45
2022-12-22T10:48:29.161Z,9.74
2022-12-22T10:50:57.349Z,9.98
2022-12-22T10:53:40.423Z,10.22
2022-12-22T10:56:08.944Z,10.12
2022-12-22T10:58:51.504Z,10.17
2022-12-22T11:01:29.019Z,10.85
2022-12-22T11:03:56.983Z,10.88
2022-12-22T11:06:25.109Z,11.13
2022-12-22T11:08:52.831Z,10.31
2022-12-22T11:11:33.469Z,11.40
2022-12-22T11:14:10.568Z,11.33
2022-12-22T11:16:43.255Z,10.87
2022-12-22T11:19:39.903Z,10.83
2022-12-22T11:22:12.289Z,10.16
2022-12-22T11:24:43.669Z,9.96
2022-12-22T11:27:24.677Z,9.86
2022-12-22T11:30:08.065Z,9.80
2022-12-22T11:32:50.898Z,10.35
2022-12-22T11:35:26.959Z,10.31
2022-12-22T11:37:59.895Z,10.82
2022-12-22T11:40:33.073Z,10.34
2022-12-22T11:43:11.883Z,10.25
2022-12-22T11:45:50.869Z,10.62
2022-12-22T11:48:37.944Z,10.27
2022-12-22T11:51:10.129Z,10.45
2022-12-22T11:54:04.170Z,10.78
2022-12-22T11:56:39.080Z,10.78
2022-12-22T11:59:20.914Z,10.70
2022-12-22T12:02:03.420Z,11.39
2022-12-22T12:04:42.810Z,10.68
2022-12-22T12:07:25.679Z,10.60
2022-12-22T12:10:02.232Z,11.02
2022-12-22T12:12:35.298Z,11.23
2022-12-22T12:15:12.455Z,11.28
2022-12-22T12:17:54.756Z,11.42
2022-12-22T12:20:34.458Z,10.73
2022-12-22T12:23:13.989Z,10.88
2022-12-22T12:25:45.327Z,10.91
2022-12-22T12:28:19.897Z,10.55
2022-12-22T12:30:53.878Z,11.53
2022-12-22T12:33:36.311Z,11.65
2022-12-22T12:36:10.135Z,11.10
2022-12-22T12:41:38.094Z,11.17
2022-12-22T12:44:06.890Z,11.23
2022-12-22T12:47:08.833Z,11.15
2022-12-22T12:50:27.769Z,10.53
2022-12-22T12:53:17.480Z,11.25
2022-12-22T12:56:06.054Z,10.99
2022-12-22T12:58:53.245Z,10.77
2022-12-22T13:01:58.325Z,11.30
2022-12-22T13:05:14.838Z,11.32
2022-12-22T13:08:08.624Z,11.09
2022-12-22T13:10:39.987Z,10.95
2022-12-22T13:13:11.957Z,12.24
2022-12-22T13:15:40.925Z,11.37
2022-12-22T13:18:39.195Z,11.26
2022-12-22T13:26:54.593Z,11.18
2022-12-22T13:29:29.767Z,11.14
2022-12-22T13:32:01.172Z,11.26
2022-12-22T13:35:04.820Z,11.99
2022-12-22T13:37:40.716Z,11.16
2022-12-22T13:40:14.290Z,10.77
2022-12-22T13:42:46.938Z,11.59
2022-12-22T13:45:20.344Z,11.32
2022-12-22T13:47:49.470Z,11.44
2022-12-22T13:50:22.922Z,11.21
2022-12-22T13:52:51.231Z,11.20
2022-12-22T13:55:22.430Z,10.51
2022-12-22T13:57:58.173Z,11.11
2022-12-22T14:00:27.934Z,11.03
2022-12-22T14:02:55.802Z,10.95
2022-12-22T14:05:23.831Z,10.84
2022-12-22T14:08:02.299Z,11.11
2022-12-22T14:10:34.421Z,10.92
2022-12-22T14:13:07.122Z,10.97
2022-12-22T14:15:35.121Z,10.51
2022-12-22T14:18:02.891Z,10.80
2022-12-22T14:20:35.610Z,10.63
2022-12-22T14:23:07.323Z,10.74
2022-12-22T14:25:36.948Z,10.78
2022-12-22T14:28:07.341Z,10.70
2022-12-22T14:30:38.905Z,10.18
2022-12-22T14:33:28.455Z,10.27
2022-12-22T14:36:15.743Z,9.85
2022-12-22T14:38:45.155Z,10.20
2022-12-22T14:41:33.207Z,10.62
2022-12-22T14:44:03.378Z,10.69
2022-12-22T14:46:38.421Z,10.60
2022-12-22T14:49:07.102Z,10.51
2022-12-22T14:51:34.790Z,10.72
2022-12-22T14:54:03.530Z,10.15
2022-12-22T14:56:31.311Z,10.13
2022-12-22T14:59:24.164Z,10.15
2022-12-22T15:01:59.200Z,10.23
2022-12-22T15:04:26.990Z,10.17
2022-12-22T15:07:05.531Z,10.04
2022-12-22T15:10:13.066Z,10.37
2022-12-22T15:12:21.444Z,10.75
2022-12-22T15:14:50.730Z,10.62
2022-12-22T15:17:22.984Z,10.24
2022-12-22T15:19:51.444Z,10.41
2022-12-22T15:22:19.190Z,10.58
2022-12-22T15:24:47.851Z,10.43
2022-12-22T15:27:15.551Z,10.91
2022-12-22T15:29:43.256Z,10.64
2022-12-22T15:32:13.284Z,10.39
2022-12-22T15:34:41.315Z,10.38
2022-12-22T15:37:12.523Z,10.40
2022-12-22T15:39:40.383Z,10.58
2022-12-22T15:42:08.315Z,10.23
2022-12-22T15:44:38.995Z,10.52
2022-12-22T15:47:07.369Z,10.30
2022-12-22T15:49:36.461Z,9.92
2022-12-22T15:52:05.144Z,10.46
2022-12-22T15:54:33.806Z,10.62
2022-12-22T15:57:01.860Z,10.48
2022-12-22T15:59:30.340Z,10.84
2022-12-22T16:02:01.765Z,10.77
2022-12-22T16:04:30.383Z,10.43
2022-12-22T16:06:59.887Z,10.86
2022-12-22T16:09:31.285Z,10.81
2022-12-22T16:11:59.222Z,10.42
2022-12-22T16:14:26.973Z,10.71
2022-12-22T16:16:54.653Z,10.97
2022-12-22T16:19:22.389Z,10.51
2022-12-22T16:21:52.108Z,10.98
2022-12-22T16:24:26.215Z,10.83
2022-12-22T16:26:56.874Z,11.17
2022-12-22T16:29:25.340Z,10.63
2022-12-22T16:31:53.225Z,10.76
2022-12-22T16:34:21.045Z,10.95
2022-12-22T16:36:48.798Z,10.77
2022-12-22T16:39:16.435Z,10.93
2022-12-22T16:41:46.381Z,11.20
2022-12-22T16:44:27.515Z,11.27
2022-12-22T16:46:55.294Z,11.19
2022-12-22T16:49:26.646Z,10.80
2022-12-22T16:51:55.252Z,11.28
2022-12-22T16:54:23.080Z,11.63
2022-12-22T16:56:52.154Z,11.52
2022-12-22T16:59:19.894Z,11.80
2022-12-22T17:01:49.845Z,11.74
2022-12-22T17:04:21.704Z,11.82
2022-12-22T17:06:50.319Z,11.65
2022-12-22T17:09:21.156Z,11.44
2022-12-22T17:11:49.203Z,11.20
2022-12-22T17:14:28.080Z,11.39
2022-12-22T17:16:55.933Z,11.41
2022-12-22T17:19:23.689Z,11.29
2022-12-22T17:21:51.529Z,11.44
2022-12-22T17:24:24.383Z,11.06
2022-12-22T17:26:55.633Z,11.10
2022-12-22T17:29:25.602Z,10.82
2022-12-22T17:31:56.408Z,11.08
2022-12-22T17:34:24.427Z,11.24
2022-12-22T17:36:52.436Z,11.11
2022-12-22T17:39:21.333Z,11.21
2022-12-22T17:41:56.144Z,11.20
2022-12-22T17:44:27.173Z,11.33
2022-12-22T17:46:54.935Z,10.78
2022-12-22T17:49:23.012Z,11.34
2022-12-22T17:51:51.128Z,11.20
2022-12-22T17:54:22.446Z,11.11
2022-12-22T17:56:50.215Z,11.34
2022-12-22T17:59:17.916Z,11.59
2022-12-22T18:01:47.110Z,11.39
2022-12-22T18:04:15.366Z,11.36
2022-12-22T18:06:43.754Z,11.60
2022-12-22T18:09:16.818Z,11.31
2022-12-22T18:11:46.330Z,11.50
2022-12-22T18:14:15.379Z,11.68
2022-12-22T18:16:44.037Z,11.48
2022-12-22T18:19:13.157Z,11.64
2022-12-22T18:21:40.996Z,11.66
2022-12-22T18:24:11.357Z,11.72
2022-12-22T18:26:39.073Z,11.65
2022-12-22T18:29:06.814Z,11.59
2022-12-22T18:31:34.545Z,11.33
2022-12-22T18:34:02.210Z,11.25
2022-12-22T18:36:32.981Z,11.37
2022-12-22T18:39:01.868Z,11.46
2022-12-22T18:41:32.300Z,11.31
2022-12-22T18:44:00.016Z,11.53
2022-12-22T18:46:27.818Z,11.28
2022-12-22T18:49:00.418Z,11.46
2022-12-22T18:51:32.627Z,11.31
2022-12-22T18:54:00.457Z,11.58
2022-12-22T18:56:28.179Z,11.66
2022-12-22T18:58:55.935Z,11.79
2022-12-22T19:01:26.104Z,12.04
2022-12-22T19:03:55.971Z,12.01
2022-12-22T19:06:24.574Z,11.92
2022-12-22T19:08:53.625Z,11.90
2022-12-22T19:11:25.667Z,11.98
2022-12-22T19:13:54.065Z,11.95
2022-12-22T19:16:26.247Z,12.15
2022-12-22T19:18:53.952Z,11.94
2022-12-22T19:21:22.110Z,12.11
2022-12-22T19:23:50.040Z,12.37
2022-12-22T19:26:22.613Z,12.26
2022-12-22T19:28:52.250Z,11.91
2022-12-22T19:31:22.627Z,11.81
2022-12-22T19:33:50.533Z,11.81
2022-12-22T19:36:19.685Z,12.12
2022-12-22T19:38:50.544Z,11.67
2022-12-22T19:41:28.932Z,11.95
2022-12-22T19:43:56.810Z,12.26
2022-12-22T19:46:25.834Z,11.95
2022-12-22T19:48:53.634Z,11.95
2022-12-22T19:51:21.359Z,12.02
2022-12-22T19:53:49.038Z,12.03
2022-12-22T19:56:22.183Z,12.33
2022-12-22T19:58:51.304Z,12.37
2022-12-22T20:01:19.167Z,12.16
2022-12-22T20:03:46.935Z,12.22
2022-12-22T20:06:14.777Z,11.82
2022-12-22T20:08:42.488Z,12.00
2022-12-22T20:11:14.185Z,11.73
2022-12-22T20:13:42.023Z,11.89
2022-12-22T20:16:13.756Z,11.65
2022-12-22T20:18:41.681Z,12.21
2022-12-22T20:21:13.036Z,12.27
2022-12-22T20:23:41.154Z,12.11
2022-12-22T20:26:13.305Z,12.11
2022-12-22T20:28:41.359Z,12.15
2022-12-22T20:31:13.303Z,12.16
2022-12-22T20:33:41.056Z,12.03
2022-12-22T20:36:16.745Z,12.28
2022-12-22T20:38:45.014Z,12.23
2022-12-22T20:41:12.703Z,12.28
2022-12-22T20:43:41.766Z,12.27
2022-12-22T20:46:15.811Z,12.43
2022-12-22T20:48:45.424Z,12.45
2022-12-22T20:51:15.543Z,12.53
2022-12-22T20:53:43.968Z,12.30
2022-12-22T20:56:19.049Z,12.59
2022-12-22T20:58:47.058Z,12.43
2022-12-22T21:01:16.636Z,12.24
2022-12-22T21:03:44.393Z,12.57
2022-12-22T21:06:24.553Z,12.70
2022-12-22T21:08:52.691Z,12.83
2022-12-22T21:11:20.401Z,12.68
2022-12-22T21:13:48.102Z,12.54
2022-12-22T21:16:18.798Z,12.44
2022-12-22T21:18:46.966Z,12.16
2022-12-22T21:21:14.866Z,12.74
2022-12-22T21:23:42.987Z,12.93
2022-12-22T21:26:19.867Z,13.07
2022-12-22T21:28:47.733Z,12.77
2022-12-22T21:31:16.802Z,12.87
2022-12-22T21:33:45.289Z,12.59
2022-12-22T21:36:18.793Z,12.83
2022-12-22T21:38:47.343Z,12.62
2022-12-22T21:41:15.043Z,12.75
2022-12-22T21:43:42.844Z,12.57
2022-12-22T21:46:12.627Z,12.73
2022-12-22T21:48:41.995Z,12.32
2022-12-22T21:51:13.095Z,12.60
2022-12-22T21:53:40.791Z,12.23
2022-12-22T21:56:17.271Z,12.38
2022-12-22T21:58:44.931Z,12.77
2022-12-22T22:01:14.926Z,12.16
2022-12-22T22:03:44.173Z,12.74
2022-12-22T22:06:11.967Z,12.75
2022-12-22T22:08:39.589Z,11.64
2022-12-22T22:11:16.484Z,12.33
2022-12-22T22:13:44.164Z,11.47
2022-12-22T22:16:11.931Z,12.07
2022-12-22T22:18:40.563Z,12.03
2022-12-22T22:21:09.835Z,12.16
2022-12-22T22:23:37.941Z,11.30
2022-12-22T22:26:06.500Z,11.71
2022-12-22T22:28:34.450Z,11.68
2022-12-22T22:31:02.626Z,11.75
2022-12-22T22:33:30.352Z,11.97
2022-12-22T22:36:03.900Z,12.06
2022-12-22T22:38:34.768Z,11.69
2022-12-22T22:41:02.611Z,11.49
2022-12-22T22:43:30.451Z,11.75
2022-12-22T22:45:58.236Z,11.47
2022-12-22T22:48:26.454Z,11.97
2022-12-22T22:50:54.248Z,12.01
2022-12-22T22:53:21.960Z,11.69
2022-12-22T22:55:51.017Z,11.88
2022-12-22T22:58:19.278Z,11.58
2022-12-22T23:00:46.924Z,12.17
2022-12-22T23:03:14.766Z,11.61
2022-12-22T23:05:42.670Z,11.69
2022-12-22T23:08:10.314Z,12.04
2022-12-22T23:10:41.856Z,11.13
2022-12-22T23:13:11.613Z,12.35
2022-12-22T23:15:39.406Z,11.49
2022-12-22T23:18:07.097Z,11.34
2022-12-22T23:20:34.806Z,12.22
2022-12-22T23:23:02.477Z,12.10
2022-12-22T23:25:30.126Z,11.36
2022-12-22T23:27:57.944Z,12.27
2022-12-22T23:30:26.994Z,11.70
2022-12-22T23:32:54.697Z,12.40
2022-12-22T23:35:22.446Z,11.76
2022-12-22T23:37:50.144Z,11.61
2022-12-22T23:40:50.448Z,12.05
2022-12-22T23:43:05.708Z,11.81
2022-12-22T23:45:35.496Z,12.44
2022-12-22T23:48:03.146Z,12.22
2022-12-22T23:50:30.778Z,12.07
2022-12-22T23:52:59.005Z,12.17
2022-12-22T23:55:26.767Z,12.33
2022-12-22T23:57:54.787Z,11.85
